首页
METAR-TAF:

METAR-TAF

机场 :

威廉斯波特, 宾夕法尼亚州, 美国

纬度: 41-14-30N, 经度: 076-55-15W, 海拔: 161米

当前天气观测

该预报发布于12分钟前的15:54 UTC
风速5节,风向东转东北
温度 0°C
湿度 86%
气压 1027 hPa
能見度: 2.0公里
阴天层高于500英尺
轻雾

METAR: KIPT 131554Z 06005KT 1 1/4SM BR OVC005 00/M02 A3033 RMK AO2 SLP278 I1001 T00001017

时间: 11:06 (16:06 UTC)

预报

该预报发布于8分钟前的15:58 UTC
预报有效从13日的 16点(UTC)到 14日的 12点(UTC)
风速5节,风向东转东北
能見度: 4.8公里
阴天层高于1000英尺
小雨, 冰粒, 轻雾
从 13日的 1700点(UTC)
风速4节,风向
能見度: 6.4公里
阴天层高于800英尺
小雨, 轻雾
从 13日的 2000点(UTC)
风速4节,风向
能見度: 9.7公里
阴天层高于700英尺
小阵雨
从 14日的 0200点(UTC)
风速4节,风向
能見度: 3.2公里
阴天层高于300英尺
雨, 轻雾

TAF: KIPT 131558Z 1316/1412 06005KT 3SM -RAPL BR OVC010 FM131700 09004KT 4SM -RA BR OVC008 FM132000 09004KT 6SM -SHRA OVC007 FM140200 09004KT 2SM RA BR OVC003

超过4000个机场的气象观测和天气预报(METAR&TAF报告)。

可查询的气象台以黄色和红色小点在地图上表示。

将鼠标移到小点上方,可查看气象台名称。

然后点击查看天气观测和预报。

如需切换地图:点击带黑十字的绿色按钮放大地图;点击带横线的绿色按钮缩小地图;或者点击绿色箭头查看邻近地区的地图。


METAR-TAF: